Time;durP1;ratioP1;P1;durP2;ratioP2;P2;SDS_P1;SDS_P2;PMS_P1;PMS_P2;Temp;Humidity;BMP_temperature;BMP_pressure;BME280_temperature;BME280_humidity;BME280_pressure;Samples;Min_cycle;Max_cycle;Signal;HPM_P1;HPM_P2
2024/01/19 00:02:10;;;;;;;0.57;0.57;;;1.50;99.90;;;;;;5016770;28;20606;-72
2024/01/19 00:04:35;;;;;;;0.30;0.30;;;1.50;99.90;;;;;;4983192;28;20049;-72
2024/01/19 00:07:01;;;;;;;0.30;0.30;;;1.50;99.90;;;;;;4982627;28;20100;-72
2024/01/19 00:09:27;;;;;;;1.87;1.70;;;1.50;99.90;;;;;;5000608;28;20416;-72
2024/01/19 00:11:52;;;;;;;0.57;0.57;;;1.50;99.90;;;;;;4982519;28;20405;-73
2024/01/19 00:14:18;;;;;;;0.20;0.20;;;1.40;99.90;;;;;;4983984;28;20081;-72
2024/01/19 00:16:43;;;;;;;5.27;0.67;;;1.40;99.90;;;;;;4999785;28;20041;-72
2024/01/19 00:19:09;;;;;;;0.27;0.27;;;1.40;99.90;;;;;;5008513;28;20061;-72
2024/01/19 00:21:42;;;;;;;1.60;0.93;;;1.30;99.90;;;;;;5020134;28;20392;-73
2024/01/19 00:24:08;;;;;;;;;;;1.30;99.90;;;;;;5019934;28;20057;-72
2024/01/19 00:26:33;;;;;;;0.53;0.53;;;1.30;99.90;;;;;;4986078;28;20197;-72
2024/01/19 00:28:59;;;;;;;0.67;0.53;;;1.30;99.90;;;;;;5009947;28;20072;-72
2024/01/19 00:31:26;;;;;;;2.33;1.33;;;1.30;99.90;;;;;;4987395;28;20064;-72
2024/01/19 00:33:52;;;;;;;0.50;0.50;;;1.20;99.90;;;;;;5027082;28;20072;-73
2024/01/19 00:36:17;;;;;;;0.63;0.53;;;1.20;99.90;;;;;;5026913;28;20084;-72
2024/01/19 00:38:43;;;;;;;0.40;0.33;;;1.20;99.90;;;;;;5025826;28;20041;-72
2024/01/19 00:41:09;;;;;;;1.60;0.97;;;1.20;99.90;;;;;;5008949;28;20067;-72
2024/01/19 00:43:34;;;;;;;0.83;0.67;;;1.10;99.90;;;;;;5008441;28;20526;-72
2024/01/19 00:46:00;;;;;;;0.10;0.10;;;1.10;99.90;;;;;;5025435;28;20038;-72
2024/01/19 00:48:26;;;;;;;1.73;1.63;;;1.10;99.90;;;;;;5008061;28;20052;-72
2024/01/19 00:50:51;;;;;;;0.10;0.10;;;1.10;99.90;;;;;;5026197;28;20044;-72
2024/01/19 00:53:17;;;;;;;0.53;0.53;;;1.00;99.90;;;;;;4992865;28;20041;-72
2024/01/19 00:55:42;;;;;;;0.40;0.40;;;1.00;99.90;;;;;;5026122;28;20111;-72
2024/01/19 00:58:10;;;;;;;0.33;0.33;;;1.00;99.90;;;;;;5008562;28;20045;-72
2024/01/19 01:00:36;;;;;;;0.90;0.90;;;1.00;99.90;;;;;;5026382;28;20049;-72
2024/01/19 01:03:01;;;;;;;0.43;0.43;;;0.90;99.90;;;;;;5006828;28;20377;-72
2024/01/19 01:05:27;;;;;;;0.33;0.33;;;0.90;99.90;;;;;;5008854;28;20107;-72
2024/01/19 01:07:52;;;;;;;0.73;0.73;;;0.90;99.90;;;;;;5006656;28;20134;-73
2024/01/19 01:10:18;;;;;;;3.00;0.93;;;0.80;99.90;;;;;;4992297;28;20034;-72
2024/01/19 01:12:44;;;;;;;0.30;0.30;;;0.80;99.90;;;;;;5008847;28;20042;-72
2024/01/19 01:15:09;;;;;;;0.27;0.27;;;0.80;99.90;;;;;;5008044;28;20400;-72
2024/01/19 01:17:37;;;;;;;1.80;1.40;;;0.80;99.90;;;;;;5007890;28;20138;-72
2024/01/19 01:20:03;;;;;;;0.93;0.93;;;0.70;99.90;;;;;;5008007;28;20038;-72
2024/01/19 01:22:29;;;;;;;1.80;1.27;;;0.70;99.90;;;;;;5008799;28;20420;-72
2024/01/19 01:24:54;;;;;;;1.13;1.03;;;0.70;99.90;;;;;;4991749;28;20274;-72
2024/01/19 01:27:20;;;;;;;2.27;2.03;;;0.70;99.90;;;;;;5007518;28;20045;-73
2024/01/19 01:29:45;;;;;;;1.07;0.57;;;0.70;99.90;;;;;;5004010;28;20608;-72
2024/01/19 01:32:11;;;;;;;0.50;0.50;;;0.70;99.90;;;;;;5021418;28;20033;-71
2024/01/19 01:34:37;;;;;;;1.13;1.10;;;0.70;99.90;;;;;;5008374;28;20172;-72
2024/01/19 01:37:02;;;;;;;0.73;0.73;;;0.70;99.90;;;;;;5025768;28;20033;-72
2024/01/19 01:39:28;;;;;;;0.30;0.30;;;0.70;99.90;;;;;;5007466;28;20040;-72
2024/01/19 01:41:53;;;;;;;0.33;0.33;;;0.70;99.90;;;;;;5008104;28;20127;-72
2024/01/19 01:44:19;;;;;;;1.20;1.17;;;0.70;99.90;;;;;;5021950;28;20053;-72
2024/01/19 01:46:44;;;;;;;0.33;0.33;;;0.70;99.90;;;;;;5020886;28;20242;-72
2024/01/19 01:49:10;;;;;;;0.43;0.30;;;0.70;99.90;;;;;;5022806;28;20038;-72
2024/01/19 01:51:36;;;;;;;1.50;1.03;;;0.80;99.90;;;;;;5004715;28;20038;-72
2024/01/19 01:54:04;;;;;;;5.20;1.50;;;0.80;99.90;;;;;;5004662;28;20108;-72
2024/01/19 01:56:30;;;;;;;0.40;0.40;;;0.90;99.90;;;;;;5005836;28;20073;-72
2024/01/19 01:58:56;;;;;;;2.53;1.60;;;0.90;99.90;;;;;;5022154;28;20041;-72
2024/01/19 02:01:21;;;;;;;0.80;0.80;;;1.00;99.90;;;;;;4994063;28;20045;-72
2024/01/19 02:03:49;;;;;;;0.20;0.20;;;1.10;99.90;;;;;;5023000;28;20060;-72
2024/01/19 02:06:15;;;;;;;20.93;0.87;;;1.20;99.90;;;;;;5022577;28;20087;-72
2024/01/19 02:08:40;;;;;;;2.33;1.27;;;1.20;99.90;;;;;;5005143;28;20147;-72
2024/01/19 02:11:06;;;;;;;0.53;0.53;;;1.20;99.90;;;;;;5021911;28;20033;-72
2024/01/19 02:13:32;;;;;;;0.50;0.50;;;1.20;99.90;;;;;;5095756;23;20147;-72
2024/01/19 02:16:00;;;;;;;1.63;1.53;;;1.20;99.90;;;;;;5039585;28;20044;-72
2024/01/19 02:18:26;;;;;;;1.07;0.50;;;1.20;99.90;;;;;;5042941;28;20075;-72
2024/01/19 02:20:53;;;;;;;0.20;0.20;;;1.20;99.90;;;;;;5039255;28;20130;-72
2024/01/19 02:23:21;;;;;;;1.77;0.63;;;1.20;99.90;;;;;;5042771;28;20052;-72
2024/01/19 02:25:47;;;;;;;1.17;0.47;;;1.20;99.90;;;;;;5043589;28;20521;-72
2024/01/19 02:28:13;;;;;;;8.90;0.73;;;1.10;99.90;;;;;;5043409;28;20041;-72
2024/01/19 02:30:40;;;;;;;1.10;0.80;;;1.20;99.90;;;;;;5025172;28;20060;-72
2024/01/19 02:33:06;;;;;;;0.20;0.20;;;1.20;99.90;;;;;;5042747;28;20045;-73
2024/01/19 02:35:32;;;;;;;0.83;0.83;;;1.20;99.90;;;;;;5043806;28;20133;-72
2024/01/19 02:37:58;;;;;;;1.03;0.67;;;1.20;99.90;;;;;;5042695;28;20059;-72
2024/01/19 02:40:23;;;;;;;0.30;0.30;;;1.30;99.90;;;;;;5025497;28;20761;-72
2024/01/19 02:42:49;;;;;;;1.53;0.93;;;1.30;99.90;;;;;;5013325;28;20076;-72
2024/01/19 02:45:15;;;;;;;1.07;0.87;;;1.30;99.90;;;;;;5036054;28;20519;-72
2024/01/19 02:47:40;;;;;;;2.00;0.97;;;1.30;99.90;;;;;;5040712;28;20120;-72
2024/01/19 02:50:06;;;;;;;0.47;0.40;;;1.30;99.90;;;;;;5012503;28;20057;-72
2024/01/19 02:52:33;;;;;;;1.27;1.17;;;1.30;99.90;;;;;;5023126;28;20045;-72
2024/01/19 02:54:59;;;;;;;0.50;0.50;;;1.30;99.90;;;;;;5027463;28;20045;-72
2024/01/19 02:57:25;;;;;;;0.67;0.63;;;1.20;99.90;;;;;;5024874;28;20049;-72
2024/01/19 02:59:50;;;;;;;0.30;0.30;;;1.20;99.90;;;;;;5016553;28;20509;-73
2024/01/19 03:02:16;;;;;;;2.33;0.73;;;1.20;99.90;;;;;;5042266;28;20044;-72
2024/01/19 03:04:41;;;;;;;4.63;1.70;;;1.20;99.90;;;;;;5023694;28;20046;-72
2024/01/19 03:07:07;;;;;;;0.70;0.70;;;1.20;99.90;;;;;;5037272;28;20041;-72
2024/01/19 03:09:34;;;;;;;4.80;0.97;;;1.10;99.90;;;;;;5035374;28;20139;-72
2024/01/19 03:11:59;;;;;;;0.50;0.50;;;1.10;99.90;;;;;;5031531;28;20148;-72
2024/01/19 03:14:25;;;;;;;0.33;0.33;;;1.10;99.90;;;;;;5042872;28;20056;-72
2024/01/19 03:16:51;;;;;;;1.57;1.10;;;1.00;99.90;;;;;;5040750;28;20047;-73
2024/01/19 03:19:17;;;;;;;1.97;1.03;;;1.00;99.90;;;;;;5037213;28;20033;-72
2024/01/19 03:21:42;;;;;;;3.50;1.03;;;1.00;99.90;;;;;;5026837;28;20043;-72
2024/01/19 03:24:08;;;;;;;0.70;0.70;;;1.00;99.90;;;;;;5029610;28;20114;-72
2024/01/19 03:26:34;;;;;;;0.30;0.30;;;1.00;99.90;;;;;;5010298;28;20047;-72
2024/01/19 03:28:59;;;;;;;1.03;1.03;;;1.00;99.90;;;;;;5033130;28;20041;-72
2024/01/19 03:31:25;;;;;;;5.63;0.70;;;1.00;99.90;;;;;;5035370;28;20508;-72
2024/01/19 03:33:51;;;;;;;2.17;1.13;;;1.00;99.90;;;;;;5007264;28;20152;-73
2024/01/19 03:36:16;;;;;;;2.10;1.33;;;1.00;99.90;;;;;;5024755;28;20072;-72
2024/01/19 03:38:43;;;;;;;3.80;1.70;;;1.10;99.90;;;;;;5033664;28;20455;-72
2024/01/19 03:41:08;;;;;;;1.17;1.10;;;1.10;99.90;;;;;;5040240;28;20068;-72
2024/01/19 03:43:34;;;;;;;0.80;0.80;;;1.10;99.90;;;;;;5039864;28;20084;-72
2024/01/19 03:46:00;;;;;;;1.50;0.57;;;1.20;99.90;;;;;;5040006;28;20037;-72
2024/01/19 03:48:25;;;;;;;2.00;1.50;;;1.30;99.90;;;;;;5017056;28;20071;-72
2024/01/19 03:50:51;;;;;;;3.03;1.13;;;1.30;99.90;;;;;;5005457;28;20072;-72
2024/01/19 03:53:16;;;;;;;3.50;1.90;;;1.30;99.90;;;;;;5022297;28;20053;-72
2024/01/19 03:55:42;;;;;;;1.80;1.43;;;1.30;99.90;;;;;;5008414;28;20033;-72
2024/01/19 03:58:07;;;;;;;0.57;0.57;;;1.30;99.90;;;;;;5035881;28;20045;-72
2024/01/19 04:00:33;;;;;;;1.10;1.00;;;1.30;99.90;;;;;;5022727;28;20092;-72
2024/01/19 04:02:58;;;;;;;0.60;0.60;;;1.20;99.90;;;;;;5035277;28;20505;-72
2024/01/19 04:05:24;;;;;;;3.30;1.53;;;1.20;99.90;;;;;;5022410;28;20041;-72
2024/01/19 04:07:50;;;;;;;1.60;0.87;;;1.20;99.90;;;;;;5022039;28;20053;-73
2024/01/19 04:10:15;;;;;;;0.57;0.57;;;1.10;99.90;;;;;;5035977;28;20044;-72
2024/01/19 04:12:41;;;;;;;0.47;0.47;;;1.10;99.90;;;;;;5023944;28;20041;-72
2024/01/19 04:15:07;;;;;;;0.10;0.10;;;1.10;99.90;;;;;;5010649;28;20109;-74
2024/01/19 04:17:32;;;;;;;0.40;0.30;;;1.00;99.90;;;;;;5031187;28;20037;-72
2024/01/19 04:19:58;;;;;;;1.23;0.83;;;1.00;99.90;;;;;;5017640;28;20048;-72
2024/01/19 04:22:25;;;;;;;0.47;0.47;;;1.00;99.90;;;;;;5039681;28;20064;-72
2024/01/19 04:24:51;;;;;;;1.10;0.70;;;1.10;99.90;;;;;;5021728;28;20064;-73
2024/01/19 04:27:16;;;;;;;12.07;0.60;;;1.10;99.90;;;;;;5041556;28;20483;-73
2024/01/19 04:29:42;;;;;;;0.70;0.40;;;1.10;99.90;;;;;;5041244;28;20468;-72
2024/01/19 04:32:07;;;;;;;1.43;1.33;;;1.00;99.90;;;;;;5026639;28;20034;-72
2024/01/19 04:34:33;;;;;;;0.37;0.37;;;1.00;99.90;;;;;;5022688;28;20049;-72
2024/01/19 04:36:59;;;;;;;2.10;1.03;;;1.00;99.90;;;;;;5021167;28;20087;-73
2024/01/19 04:39:25;;;;;;;5.60;2.17;;;1.00;99.90;;;;;;5004608;28;20054;-72
2024/01/19 04:41:50;;;;;;;4.50;1.20;;;1.00;99.90;;;;;;5003518;28;20057;-73
2024/01/19 04:44:16;;;;;;;0.73;0.40;;;1.00;99.90;;;;;;5000577;28;20045;-72
2024/01/19 04:46:41;;;;;;;0.60;0.43;;;0.90;99.90;;;;;;5005247;28;20124;-72
2024/01/19 04:49:07;;;;;;;1.33;0.90;;;0.90;99.90;;;;;;5019236;28;20045;-72
2024/01/19 04:51:33;;;;;;;0.50;0.50;;;0.90;99.90;;;;;;5002998;28;20073;-72
2024/01/19 04:53:59;;;;;;;1.13;0.93;;;0.80;99.90;;;;;;5019513;28;20045;-72
2024/01/19 04:56:25;;;;;;;1.03;0.53;;;0.80;99.90;;;;;;5020000;28;20730;-72
2024/01/19 04:58:50;;;;;;;0.30;0.30;;;0.70;99.90;;;;;;5033200;28;20514;-73
2024/01/19 05:01:17;;;;;;;0.27;0.27;;;0.70;99.90;;;;;;5026354;28;20291;-72
2024/01/19 05:03:43;;;;;;;4.27;1.10;;;0.70;99.90;;;;;;5039995;28;20124;-72
2024/01/19 05:06:11;;;;;;;1.77;1.30;;;0.70;99.90;;;;;;5011261;28;20128;-72
2024/01/19 05:08:36;;;;;;;3.27;1.23;;;0.60;99.90;;;;;;5026406;28;20121;-72
2024/01/19 05:11:02;;;;;;;19.73;1.37;;;0.60;99.90;;;;;;5003319;28;20595;-72
2024/01/19 05:13:27;;;;;;;0.73;0.73;;;0.50;99.90;;;;;;5026937;28;20049;-72
2024/01/19 05:15:53;;;;;;;0.50;0.40;;;0.50;99.90;;;;;;5039107;28;20090;-73
2024/01/19 05:18:19;;;;;;;1.17;0.80;;;0.50;99.90;;;;;;5021788;28;20124;-72
2024/01/19 05:20:44;;;;;;;1.17;0.97;;;0.50;99.90;;;;;;5038896;28;20048;-72
2024/01/19 05:23:10;;;;;;;0.50;0.50;;;0.50;99.90;;;;;;5016266;28;20041;-72
2024/01/19 05:25:35;;;;;;;3.33;1.87;;;0.50;99.90;;;;;;5028937;28;20806;-72
2024/01/19 05:28:02;;;;;;;0.33;0.33;;;0.40;99.90;;;;;;5005606;28;20539;-72
2024/01/19 05:30:27;;;;;;;1.47;0.93;;;0.40;99.90;;;;;;5006181;28;20049;-72
2024/01/19 05:32:53;;;;;;;0.57;0.50;;;0.40;99.90;;;;;;5017114;28;20072;-73
2024/01/19 05:35:19;;;;;;;0.80;0.80;;;0.40;99.90;;;;;;5006102;28;20042;-72
2024/01/19 05:37:44;;;;;;;0.70;0.70;;;0.40;99.90;;;;;;5031287;28;20041;-72
2024/01/19 05:40:10;;;;;;;1.50;0.47;;;0.40;99.90;;;;;;5025037;28;20324;-72
2024/01/19 05:42:35;;;;;;;0.77;0.77;;;0.50;99.90;;;;;;5013910;28;20128;-72
2024/01/19 05:45:01;;;;;;;0.40;0.40;;;0.40;99.90;;;;;;5027438;28;20045;-72
2024/01/19 05:47:27;;;;;;;0.20;0.20;;;0.40;99.90;;;;;;5011417;28;20557;-72
2024/01/19 05:49:52;;;;;;;0.57;0.57;;;0.40;99.90;;;;;;5016928;28;20384;-73
2024/01/19 05:52:18;;;;;;;0.70;0.70;;;0.40;99.90;;;;;;5005874;28;20506;-72
2024/01/19 05:54:44;;;;;;;1.87;1.53;;;0.40;99.90;;;;;;5033357;28;20045;-72
2024/01/19 05:57:09;;;;;;;0.60;0.53;;;0.40;99.90;;;;;;5042284;28;20052;-72
2024/01/19 05:59:38;;;;;;;1.70;1.57;;;0.40;99.90;;;;;;5042885;28;20564;-72
2024/01/19 06:02:04;;;;;;;1.33;0.87;;;0.40;99.90;;;;;;5023562;28;20041;-72
2024/01/19 06:04:33;;;;;;;0.30;0.30;;;0.40;99.90;;;;;;5042345;28;20094;-72
2024/01/19 06:06:59;;;;;;;0.30;0.30;;;0.40;99.90;;;;;;5042370;28;20354;-72
2024/01/19 06:09:25;;;;;;;1.40;1.30;;;0.40;99.90;;;;;;5022433;28;20056;-86
2024/01/19 06:11:51;;;;;;;0.70;0.70;;;0.40;99.90;;;;;;4998917;28;20670;-85
2024/01/19 06:14:16;;;;;;;2.20;2.00;;;0.40;99.90;;;;;;5008205;28;20265;-85
2024/01/19 06:16:42;;;;;;;4.67;1.03;;;0.30;99.90;;;;;;5020236;28;20103;-85
2024/01/19 06:19:07;;;;;;;4.00;0.50;;;0.30;99.90;;;;;;5013195;28;20048;-85
2024/01/19 06:21:33;;;;;;;1.20;1.10;;;0.30;99.90;;;;;;5012117;28;20083;-86
2024/01/19 06:23:59;;;;;;;0.77;0.77;;;0.30;99.90;;;;;;5016383;28;20116;-84
2024/01/19 06:26:25;;;;;;;1.10;0.63;;;0.30;99.90;;;;;;5012355;28;20124;-85
2024/01/19 06:28:50;;;;;;;0.60;0.60;;;0.20;99.90;;;;;;5013872;28;20048;-83
2024/01/19 06:31:16;;;;;;;0.50;0.50;;;0.20;99.90;;;;;;5030794;28;20510;-80
2024/01/19 06:33:41;;;;;;;0.83;0.83;;;0.20;99.90;;;;;;5028560;28;20049;-84
2024/01/19 06:36:10;;;;;;;1.30;1.17;;;0.30;99.90;;;;;;5023728;28;20453;-83
2024/01/19 06:38:36;;;;;;;1.20;0.80;;;0.30;99.90;;;;;;5035514;28;20041;-83
2024/01/19 06:41:03;;;;;;;0.40;0.40;;;0.30;99.90;;;;;;5025381;28;20479;-84
2024/01/19 06:43:29;;;;;;;0.70;0.70;;;0.30;99.90;;;;;;5006144;28;20698;-82
2024/01/19 06:45:55;;;;;;;1.20;0.73;;;0.30;99.90;;;;;;5029599;28;20040;-73
2024/01/19 06:48:20;;;;;;;0.57;0.57;;;0.40;99.90;;;;;;5017124;28;20132;-73
2024/01/19 06:50:46;;;;;;;1.83;1.73;;;0.40;99.90;;;;;;5014257;28;20037;-73
2024/01/19 06:53:12;;;;;;;1.40;1.30;;;0.40;99.90;;;;;;5005036;28;20342;-74
2024/01/19 06:55:38;;;;;;;7.00;1.83;;;0.40;99.90;;;;;;5028635;28;20106;-76
2024/01/19 06:58:03;;;;;;;4.80;1.23;;;0.40;99.90;;;;;;5022069;28;20763;-75
2024/01/19 07:00:29;;;;;;;0.77;0.77;;;0.40;99.90;;;;;;5013148;28;20048;-73
2024/01/19 07:02:55;;;;;;;1.67;1.57;;;0.40;99.90;;;;;;5042114;28;20593;-75
2024/01/19 07:05:20;;;;;;;3.07;0.60;;;0.40;99.90;;;;;;5009826;28;20045;-76
2024/01/19 07:07:46;;;;;;;1.97;1.57;;;0.40;99.90;;;;;;5033340;28;20497;-76
2024/01/19 07:10:11;;;;;;;1.90;1.80;;;0.50;99.90;;;;;;5006381;28;20076;-74
2024/01/19 07:12:37;;;;;;;0.40;0.40;;;0.40;99.90;;;;;;5030557;28;20052;-74
2024/01/19 07:15:06;;;;;;;1.83;1.73;;;0.40;99.90;;;;;;5012129;28;20050;-74
2024/01/19 07:17:31;;;;;;;4.13;2.03;;;0.40;99.90;;;;;;5038619;28;20052;-73
2024/01/19 07:19:59;;;;;;;1.63;1.53;;;0.40;99.90;;;;;;5015338;28;20380;-74
2024/01/19 07:22:26;;;;;;;1.37;1.20;;;0.40;99.90;;;;;;5030255;28;20341;-73
2024/01/19 07:24:52;;;;;;;5.97;1.87;;;0.50;99.90;;;;;;5033368;28;20186;-75
2024/01/19 07:27:17;;;;;;;0.80;0.80;;;0.50;99.90;;;;;;5018572;28;20037;-74
2024/01/19 07:29:43;;;;;;;0.77;0.77;;;0.50;99.90;;;;;;5004735;28;20049;-74
2024/01/19 07:32:09;;;;;;;8.13;2.37;;;0.50;99.90;;;;;;5016349;28;20045;-74
2024/01/19 07:34:34;;;;;;;5.30;2.57;;;0.50;99.90;;;;;;5002912;28;20412;-74
2024/01/19 07:37:00;;;;;;;3.37;1.67;;;0.60;99.90;;;;;;4986903;28;20037;-73
2024/01/19 07:39:26;;;;;;;2.83;2.47;;;0.60;99.90;;;;;;5002915;28;20061;-74
2024/01/19 07:41:52;;;;;;;0.73;0.73;;;0.60;99.90;;;;;;5002472;28;20338;-74
2024/01/19 07:44:18;;;;;;;3.40;1.13;;;0.60;99.90;;;;;;5039670;28;20045;-73
2024/01/19 07:46:44;;;;;;;1.53;1.43;;;0.60;99.90;;;;;;5036321;28;20076;-74
2024/01/19 07:49:10;;;;;;;2.00;1.90;;;0.50;99.90;;;;;;5029595;28;20537;-76
2024/01/19 07:51:36;;;;;;;1.27;1.07;;;0.50;99.90;;;;;;5013153;28;20200;-76
2024/01/19 07:54:02;;;;;;;14.30;4.47;;;0.50;99.90;;;;;;5016984;28;20535;-77
2024/01/19 07:56:28;;;;;;;3.63;1.60;;;0.50;99.90;;;;;;5036304;28;20320;-76
2024/01/19 07:58:53;;;;;;;2.53;1.30;;;0.40;99.90;;;;;;4989677;28;20084;-75
2024/01/19 08:01:19;;;;;;;0.70;0.70;;;0.40;99.90;;;;;;5016192;28;20048;-76
2024/01/19 08:03:44;;;;;;;1.60;1.50;;;0.40;99.90;;;;;;5010613;28;20051;-76
2024/01/19 08:06:11;;;;;;;2.30;2.10;;;0.40;99.90;;;;;;5012441;28;20049;-75
2024/01/19 08:08:36;;;;;;;7.03;2.60;;;0.40;99.90;;;;;;5014371;28;20108;-75
2024/01/19 08:11:02;;;;;;;1.10;1.10;;;0.40;99.90;;;;;;5002508;28;20137;-74
2024/01/19 08:13:27;;;;;;;1.00;0.53;;;0.40;99.90;;;;;;5013478;28;20489;-74
2024/01/19 08:15:53;;;;;;;0.97;0.97;;;0.40;99.90;;;;;;5004383;28;20053;-75
2024/01/19 08:18:19;;;;;;;3.87;2.00;;;0.40;99.90;;;;;;5023237;28;20038;-73
2024/01/19 08:20:44;;;;;;;2.07;1.97;;;0.40;99.90;;;;;;5037265;28;20048;-78
2024/01/19 08:23:10;;;;;;;1.70;1.60;;;0.40;99.90;;;;;;5017818;28;20477;-77
2024/01/19 08:25:35;;;;;;;9.33;1.70;;;0.40;99.90;;;;;;5037276;28;20410;-78
2024/01/19 08:28:02;;;;;;;3.73;2.03;;;0.40;99.90;;;;;;5026943;28;20131;-78
2024/01/19 08:30:27;;;;;;;2.13;1.30;;;0.40;99.90;;;;;;5020181;28;20041;-76
2024/01/19 08:32:53;;;;;;;1.47;0.90;;;0.40;99.90;;;;;;5020175;28;20044;-78
2024/01/19 08:35:18;;;;;;;7.80;2.50;;;0.40;99.90;;;;;;5037356;28;20110;-77
2024/01/19 08:37:44;;;;;;;1.27;1.17;;;0.40;99.90;;;;;;5003570;28;20120;-78
2024/01/19 08:40:13;;;;;;;7.17;2.10;;;0.50;99.90;;;;;;5018473;28;20251;-76
2024/01/19 08:42:39;;;;;;;7.90;1.13;;;0.40;99.90;;;;;;5035901;28;20518;-76
2024/01/19 08:45:06;;;;;;;1.57;1.47;;;0.40;99.90;;;;;;4999543;28;20044;-76
2024/01/19 08:47:32;;;;;;;2.03;1.50;;;0.40;99.90;;;;;;5012610;28;20049;-77
2024/01/19 08:49:59;;;;;;;6.27;1.70;;;0.50;99.90;;;;;;4992918;28;20420;-77
2024/01/19 08:52:27;;;;;;;1.07;0.83;;;0.50;99.90;;;;;;5023050;28;20040;-77
2024/01/19 08:54:52;;;;;;;4.33;2.13;;;0.50;99.90;;;;;;5041268;28;20048;-77
2024/01/19 08:57:18;;;;;;;1.10;0.77;;;0.50;99.90;;;;;;5012783;28;20044;-76
2024/01/19 08:59:45;;;;;;;1.90;0.73;;;0.50;99.90;;;;;;5030656;28;20037;-76
2024/01/19 09:02:11;;;;;;;2.50;2.33;;;0.50;99.90;;;;;;5019760;28;20041;-76
2024/01/19 09:04:38;;;;;;;2.17;1.43;;;0.60;99.90;;;;;;5035062;28;20033;-77
2024/01/19 09:07:04;;;;;;;0.30;0.30;;;0.60;99.90;;;;;;5001256;28;20483;-76
2024/01/19 09:09:29;;;;;;;0.77;0.77;;;0.60;99.90;;;;;;5013933;28;20060;-75
2024/01/19 09:11:56;;;;;;;3.80;1.10;;;0.60;99.90;;;;;;5042650;28;20040;-76
2024/01/19 09:14:22;;;;;;;1.07;1.00;;;0.60;99.90;;;;;;5024150;28;20052;-75
2024/01/19 09:16:48;;;;;;;2.60;2.40;;;0.70;99.90;;;;;;5030625;28;20053;-74
2024/01/19 09:19:13;;;;;;;1.97;1.30;;;0.70;99.90;;;;;;5014973;28;20540;-75
2024/01/19 09:21:40;;;;;;;2.63;0.97;;;0.70;99.90;;;;;;5017623;28;21116;-73
2024/01/19 09:24:08;;;;;;;0.93;0.90;;;0.80;99.90;;;;;;5034458;28;20052;-73
2024/01/19 09:26:34;;;;;;;8.50;1.50;;;0.90;99.90;;;;;;5041109;28;20087;-74
2024/01/19 09:29:00;;;;;;;1.73;1.63;;;0.90;99.90;;;;;;5020160;28;20053;-74
2024/01/19 09:31:25;;;;;;;2.00;1.40;;;1.00;99.90;;;;;;5041982;28;20037;-73
2024/01/19 09:33:51;;;;;;;1.17;0.97;;;1.00;99.90;;;;;;5034389;28;20041;-73
2024/01/19 09:36:16;;;;;;;0.73;0.73;;;1.10;99.90;;;;;;5038389;28;20132;-73
2024/01/19 09:38:42;;;;;;;1.83;0.63;;;1.10;99.90;;;;;;5026075;28;20072;-73
2024/01/19 09:41:25;;;;;;;1.00;1.00;;;1.10;99.90;;;;;;5042492;28;20475;-73
2024/01/19 09:43:54;;;;;;;5.45;2.00;;;1.20;99.90;;;;;;5017820;28;20323;-75
2024/01/19 09:46:28;;;;;;;1.97;1.47;;;1.20;99.90;;;;;;5033474;28;20029;-73
2024/01/19 09:49:02;;;;;;;1.50;1.27;;;1.30;99.90;;;;;;5018760;28;20750;-75
2024/01/19 09:51:45;;;;;;;1.03;0.60;;;1.30;99.90;;;;;;5014096;28;20052;-74
2024/01/19 09:54:16;;;;;;;18.37;2.17;;;1.30;99.90;;;;;;5019703;28;20531;-74
2024/01/19 09:56:41;;;;;;;0.80;0.80;;;1.30;99.90;;;;;;5024871;28;20055;-74
2024/01/19 09:59:08;;;;;;;1.37;0.97;;;1.30;99.90;;;;;;5025114;28;20041;-74
2024/01/19 10:01:35;;;;;;;3.93;2.00;;;1.40;99.90;;;;;;5028332;28;20080;-74
2024/01/19 10:04:04;;;;;;;1.43;1.33;;;1.40;99.90;;;;;;5039987;28;20120;-72
2024/01/19 10:06:30;;;;;;;0.77;0.77;;;1.40;99.90;;;;;;5023709;28;20041;-75
2024/01/19 10:08:57;;;;;;;2.30;1.40;;;1.40;99.90;;;;;;5007744;28;20251;-75
2024/01/19 10:11:23;;;;;;;1.13;1.10;;;1.40;99.90;;;;;;5024365;28;20047;-74
2024/01/19 10:13:49;;;;;;;1.10;1.10;;;1.50;99.90;;;;;;5025296;28;20060;-74
2024/01/19 10:16:14;;;;;;;5.73;0.93;;;1.50;99.90;;;;;;5041345;28;20040;-73
2024/01/19 10:18:42;;;;;;;18.03;2.10;;;1.50;99.90;;;;;;5042640;28;20090;-72
2024/01/19 10:21:07;;;;;;;1.47;0.70;;;1.60;99.90;;;;;;5023935;28;20052;-73
2024/01/19 10:23:33;;;;;;;0.87;0.87;;;1.60;99.90;;;;;;5036601;28;20045;-75
2024/01/19 10:26:13;;;;;;;1.93;1.77;;;1.60;99.90;;;;;;5018300;28;20539;-74
2024/01/19 10:28:39;;;;;;;0.77;0.77;;;1.70;99.90;;;;;;5024145;28;20037;-75
2024/01/19 10:31:16;;;;;;;0.70;0.70;;;1.80;99.90;;;;;;5021025;28;20034;-75
2024/01/19 10:33:57;;;;;;;1.40;1.17;;;1.80;99.90;;;;;;5006347;28;20049;-75
2024/01/19 10:36:23;;;;;;;1.02;1.00;;;1.90;99.90;;;;;;5020909;28;20049;-75
2024/01/19 10:38:49;;;;;;;2.93;1.10;;;1.90;99.90;;;;;;5038119;28;20212;-75
2024/01/19 10:41:16;;;;;;;3.03;1.80;;;2.00;99.90;;;;;;5025928;28;20096;-75
2024/01/19 10:43:42;;;;;;;2.33;0.90;;;2.00;99.90;;;;;;5023938;28;20472;-75
2024/01/19 10:46:21;;;;;;;5.07;2.27;;;2.10;99.90;;;;;;5031340;28;20124;-75
2024/01/19 10:48:49;;;;;;;0.60;0.60;;;2.10;99.90;;;;;;5030197;28;20040;-75
2024/01/19 10:51:19;;;;;;;1.03;1.03;;;2.20;99.90;;;;;;5024371;28;20569;-75
2024/01/19 10:53:50;;;;;;;3.50;1.00;;;2.20;99.90;;;;;;5042740;28;20439;-75
2024/01/19 10:56:22;;;;;;;0.60;0.60;;;2.30;99.90;;;;;;5023982;28;20081;-75
2024/01/19 10:58:48;;;;;;;1.40;0.68;;;2.30;99.90;;;;;;5041741;28;20077;-75
2024/01/19 11:01:17;;;;;;;0.90;0.90;;;2.40;99.90;;;;;;5020891;28;20052;-76
2024/01/19 11:03:44;;;;;;;0.50;0.50;;;2.40;99.90;;;;;;5041189;28;20088;-76
2024/01/19 11:06:10;;;;;;;1.07;0.97;;;2.50;99.90;;;;;;5040862;28;20037;-76
2024/01/19 11:08:39;;;;;;;1.87;0.40;;;2.50;99.90;;;;;;5039851;28;20040;-76
2024/01/19 11:11:05;;;;;;;1.17;0.83;;;2.50;99.90;;;;;;5022649;28;20132;-74
2024/01/19 11:13:40;;;;;;;1.50;0.50;;;2.60;99.90;;;;;;5035381;28;20125;-76
2024/01/19 11:16:17;;;;;;;2.38;1.38;;;2.60;99.90;;;;;;5029638;28;20049;-76
2024/01/19 11:18:44;;;;;;;3.05;1.10;;;2.60;99.90;;;;;;5018253;28;20310;-76
2024/01/19 11:21:10;;;;;;;1.23;0.70;;;2.60;99.90;;;;;;5016444;28;20530;-76
2024/01/19 11:23:37;;;;;;;0.65;0.65;;;2.70;99.90;;;;;;5026198;28;20057;-76
2024/01/19 11:26:22;;;;;;;6.80;1.57;;;2.70;99.90;;;;;;5035890;28;20196;-76
2024/01/19 11:29:00;;;;;;;5.10;1.43;;;2.80;99.90;;;;;;5024200;28;20045;-75
2024/01/19 11:31:29;;;;;;;3.23;1.40;;;2.70;99.90;;;;;;5042798;28;20041;-76
2024/01/19 11:33:55;;;;;;;1.73;0.68;;;2.80;99.90;;;;;;5024219;28;20102;-76
2024/01/19 11:36:39;;;;;;;1.55;1.20;;;2.80;99.90;;;;;;5040144;28;20338;-75
2024/01/19 11:39:05;;;;;;;4.35;1.02;;;2.80;99.90;;;;;;5018456;28;20063;-75
2024/01/19 11:41:34;;;;;;;3.70;0.43;;;2.80;99.90;;;;;;5004348;28;20033;-73
2024/01/19 11:44:07;;;;;;;1.80;0.70;;;2.90;99.90;;;;;;5014621;28;20049;-75
2024/01/19 11:46:50;;;;;;;8.73;1.23;;;2.90;99.90;;;;;;5007340;28;20037;-74
2024/01/19 11:49:31;;;;;;;0.60;0.60;;;2.90;99.90;;;;;;5028003;28;20498;-74
2024/01/19 11:52:01;;;;;;;1.13;0.70;;;2.90;99.90;;;;;;5013948;28;20049;-73
2024/01/19 11:54:33;;;;;;;1.35;0.52;;;3.00;99.90;;;;;;5014545;28;20386;-73
2024/01/19 11:57:26;;;;;;;1.70;0.93;;;3.00;99.90;;;;;;5018593;28;20120;-74
2024/01/19 11:59:55;;;;;;;0.35;0.35;;;3.00;99.90;;;;;;5030409;28;20048;-74
2024/01/19 12:02:22;;;;;;;0.57;0.57;;;3.00;99.90;;;;;;5019116;28;20065;-74
2024/01/19 12:04:48;;;;;;;4.57;1.17;;;3.10;99.90;;;;;;5011652;28;20097;-73
2024/01/19 12:07:18;;;;;;;1.45;0.90;;;3.10;99.90;;;;;;5015184;28;20057;-73
2024/01/19 12:09:44;;;;;;;1.23;0.90;;;3.10;99.90;;;;;;5017919;28;20037;-73
2024/01/19 12:12:09;;;;;;;2.33;1.17;;;3.10;99.90;;;;;;5008420;28;20060;-72
2024/01/19 12:14:35;;;;;;;5.82;0.82;;;3.10;99.90;;;;;;5015324;28;20049;-73
2024/01/19 12:17:01;;;;;;;2.17;1.95;;;3.10;99.90;;;;;;5014254;28;20178;-73
2024/01/19 12:19:26;;;;;;;0.40;0.40;;;3.20;99.90;;;;;;5018101;28;20253;-73
2024/01/19 12:21:56;;;;;;;1.67;1.50;;;3.10;99.90;;;;;;5035674;28;20361;-74
2024/01/19 12:24:22;;;;;;;1.75;0.80;;;3.10;99.90;;;;;;5038130;28;20494;-74
2024/01/19 12:26:52;;;;;;;0.80;0.30;;;3.10;99.90;;;;;;5021780;28;20076;-74
2024/01/19 12:29:36;;;;;;;1.38;0.75;;;3.20;99.90;;;;;;5030559;28;20564;-74
2024/01/19 12:32:17;;;;;;;0.22;0.22;;;3.20;99.90;;;;;;5010167;28;20041;-73
2024/01/19 12:34:56;;;;;;;1.75;0.30;;;3.20;99.90;;;;;;5018891;28;20048;-73
2024/01/19 12:37:22;;;;;;;0.40;0.40;;;3.20;99.90;;;;;;4996991;28;20527;-72
2024/01/19 12:39:48;;;;;;;0.68;0.68;;;3.20;99.90;;;;;;5013236;28;20041;-73
2024/01/19 12:42:13;;;;;;;2.13;1.02;;;3.30;99.90;;;;;;5025180;28;20132;-74
2024/01/19 12:44:39;;;;;;;1.80;0.82;;;3.30;99.90;;;;;;5039351;28;20048;-73
2024/01/19 12:47:04;;;;;;;0.45;0.40;;;3.30;99.90;;;;;;5020870;28;20033;-73
2024/01/19 12:49:30;;;;;;;1.58;0.85;;;3.30;99.90;;;;;;5007292;28;20042;-73
2024/01/19 12:51:56;;;;;;;0.75;0.75;;;3.30;99.90;;;;;;5005992;28;20041;-73
2024/01/19 12:54:21;;;;;;;1.30;1.17;;;3.30;99.90;;;;;;5018668;28;20090;-73
2024/01/19 12:56:49;;;;;;;2.17;0.95;;;3.30;99.90;;;;;;4992142;28;20671;-72